Sun Prairie, WI (53590)

1:10 AM CST on January 24, 2018 (GMT -0600)
Northside School | | Change Station

Elev 1007 ft 43.19 °N, 89.22 °W | Updated 31 seconds ago

Overcast
Overcast
23.3 °F
Feels Like 23 °F
N
1.0
Wind Variable Wind from WNW
Gusts 4.0 mph

Today
High -- | Low -- °F
--% Chance of Precip.
Yesterday
High -- | Low -- °F
Precip. -- in
Pressure 30.21 in
Visibility 10.0 miles
Clouds Overcast 2100 ft
Windchill 23 °F
Dew Point 20 °F
Humidity 87%
Rainfall 0.00 in
Snow Depth Not available.
7:19 AM 4:58 PM
Waxing Crescent, 43% visible
METAR KMSN 240653Z AUTO 34006KT 10SM OVC021 M04/M07 A3017 RMK AO2 SLP228 T10441072
Pressure 30.21 in
Visibility 10.0 miles
Clouds Overcast 2100 ft
Windchill 23 °F
Dew Point 20 °F
Humidity 87%
Rainfall 0.00 in
Snow Depth Not available.
7:19 AM 4:58 PM
Waxing Crescent, 43% visible
METAR KMSN 240653Z AUTO 34006KT 10SM OVC021 M04/M07 A3017 RMK AO2 SLP228 T10441072

Get Severe Weather Alerts

Thanks for signing up!

Be on the lookout for a verification email in your inbox.

You'll start receiving the daily forecast at 6 AM.

×

10-Day Weather Forecast

Almanac

Astronomy

Jan. 24, 2018 Rise Set
Actual Time
Civil Twilight
Nautical Twilight
Astronomical Twilight
Moon
Length of Visible Light
Length of Day
Tomorrow will be .
, % of the Moon is Illuminated

Today's Extremes

State Highs State Lows

Community

WunderPhotos

Category 6

Welcome to Category 6. This is the collective home for Weather Underground's featured writeups by Dr. Jeff Masters (right), Bob Henson (left), Chris Burt, and other regular contributors.

Nearby

Air Quality

  Air Quality AQ Index Pollutant
Not available.

Snow Depth

Station Depth Elevation

Earthquake Activity

City Distance Mag. Time & Date
Minimum magnitude displayed is 2.5.

Coastal Water Temperatures

Place Temperature

Stations

Nearby Weather Stations

Station Location Temp. Windchill Dew Point Humidity Wind Precip. Elev Updated Type
                   

Watches & Warnings

There are currently no watches in effect.